sensor_id;sensor_type;location;lat;lon;timestamp;P1;durP1;ratioP1;P2;durP2;ratioP2
68940;SDS011;55982;51.476;7.552;2022-11-22T00:01:22;5.53;;;2.55;;
68940;SDS011;55982;51.476;7.552;2022-11-22T00:03:47;6.82;;;2.50;;
68940;SDS011;55982;51.476;7.552;2022-11-22T00:06:12;5.45;;;2.55;;
68940;SDS011;55982;51.476;7.552;2022-11-22T00:08:38;4.05;;;2.42;;
68940;SDS011;55982;51.476;7.552;2022-11-22T00:11:03;7.40;;;2.40;;
68940;SDS011;55982;51.476;7.552;2022-11-22T00:13:28;8.45;;;2.60;;
68940;SDS011;55982;51.476;7.552;2022-11-22T00:15:57;5.63;;;2.20;;
68940;SDS011;55982;51.476;7.552;2022-11-22T00:18:27;5.07;;;2.05;;
68940;SDS011;55982;51.476;7.552;2022-11-22T00:20:53;6.65;;;2.63;;
68940;SDS011;55982;51.476;7.552;2022-11-22T00:23:19;4.88;;;2.30;;
68940;SDS011;55982;51.476;7.552;2022-11-22T00:25:44;4.38;;;2.25;;
68940;SDS011;55982;51.476;7.552;2022-11-22T00:28:10;5.10;;;2.35;;
68940;SDS011;55982;51.476;7.552;2022-11-22T00:30:35;7.53;;;2.33;;
68940;SDS011;55982;51.476;7.552;2022-11-22T00:33:01;4.93;;;1.80;;
68940;SDS011;55982;51.476;7.552;2022-11-22T00:35:26;4.40;;;2.17;;
68940;SDS011;55982;51.476;7.552;2022-11-22T00:37:51;5.82;;;2.10;;
68940;SDS011;55982;51.476;7.552;2022-11-22T00:40:17;5.28;;;2.20;;
68940;SDS011;55982;51.476;7.552;2022-11-22T00:42:42;4.85;;;2.00;;
68940;SDS011;55982;51.476;7.552;2022-11-22T00:45:08;8.70;;;2.08;;
68940;SDS011;55982;51.476;7.552;2022-11-22T00:47:33;4.25;;;1.80;;
68940;SDS011;55982;51.476;7.552;2022-11-22T00:49:59;5.00;;;1.95;;
68940;SDS011;55982;51.476;7.552;2022-11-22T00:52:24;3.38;;;2.03;;
68940;SDS011;55982;51.476;7.552;2022-11-22T00:54:49;3.15;;;2.03;;
68940;SDS011;55982;51.476;7.552;2022-11-22T00:57:14;5.40;;;1.80;;
68940;SDS011;55982;51.476;7.552;2022-11-22T00:59:40;3.10;;;1.70;;
68940;SDS011;55982;51.476;7.552;2022-11-22T01:02:05;4.65;;;1.88;;
68940;SDS011;55982;51.476;7.552;2022-11-22T01:04:30;4.60;;;1.80;;
68940;SDS011;55982;51.476;7.552;2022-11-22T01:06:56;4.22;;;1.77;;
68940;SDS011;55982;51.476;7.552;2022-11-22T01:09:22;5.55;;;2.20;;
68940;SDS011;55982;51.476;7.552;2022-11-22T01:11:48;3.63;;;2.00;;
68940;SDS011;55982;51.476;7.552;2022-11-22T01:14:14;5.03;;;1.80;;
68940;SDS011;55982;51.476;7.552;2022-11-22T01:16:41;2.97;;;1.88;;
68940;SDS011;55982;51.476;7.552;2022-11-22T01:19:07;2.97;;;1.95;;
68940;SDS011;55982;51.476;7.552;2022-11-22T01:21:32;5.20;;;1.70;;
68940;SDS011;55982;51.476;7.552;2022-11-22T01:23:58;3.35;;;1.90;;
68940;SDS011;55982;51.476;7.552;2022-11-22T01:26:23;3.95;;;2.20;;
68940;SDS011;55982;51.476;7.552;2022-11-22T01:28:48;5.05;;;2.00;;
68940;SDS011;55982;51.476;7.552;2022-11-22T01:31:14;4.15;;;2.20;;
68940;SDS011;55982;51.476;7.552;2022-11-22T01:33:39;6.13;;;2.28;;
68940;SDS011;55982;51.476;7.552;2022-11-22T01:36:04;4.95;;;2.30;;
68940;SDS011;55982;51.476;7.552;2022-11-22T01:38:30;6.80;;;2.40;;
68940;SDS011;55982;51.476;7.552;2022-11-22T01:40:55;4.88;;;2.65;;
68940;SDS011;55982;51.476;7.552;2022-11-22T01:43:24;7.20;;;2.60;;
68940;SDS011;55982;51.476;7.552;2022-11-22T01:45:53;5.78;;;2.55;;
68940;SDS011;55982;51.476;7.552;2022-11-22T01:48:34;6.38;;;2.55;;
68940;SDS011;55982;51.476;7.552;2022-11-22T01:53:56;7.10;;;3.17;;
68940;SDS011;55982;51.476;7.552;2022-11-22T01:56:26;7.20;;;2.92;;
68940;SDS011;55982;51.476;7.552;2022-11-22T01:58:57;6.18;;;3.28;;
68940;SDS011;55982;51.476;7.552;2022-11-22T02:01:27;8.55;;;3.25;;
68940;SDS011;55982;51.476;7.552;2022-11-22T02:03:52;11.20;;;4.30;;
68940;SDS011;55982;51.476;7.552;2022-11-22T02:06:23;6.80;;;3.40;;
68940;SDS011;55982;51.476;7.552;2022-11-22T02:08:56;7.38;;;3.47;;
68940;SDS011;55982;51.476;7.552;2022-11-22T02:11:27;9.00;;;3.97;;
68940;SDS011;55982;51.476;7.552;2022-11-22T02:13:53;9.50;;;3.75;;
68940;SDS011;55982;51.476;7.552;2022-11-22T02:16:19;7.72;;;3.45;;
68940;SDS011;55982;51.476;7.552;2022-11-22T02:18:46;7.13;;;3.67;;
68940;SDS011;55982;51.476;7.552;2022-11-22T02:21:11;6.53;;;3.80;;
68940;SDS011;55982;51.476;7.552;2022-11-22T02:23:43;8.48;;;4.07;;
68940;SDS011;55982;51.476;7.552;2022-11-22T02:26:12;7.67;;;3.93;;
68940;SDS011;55982;51.476;7.552;2022-11-22T02:28:38;6.57;;;3.33;;
68940;SDS011;55982;51.476;7.552;2022-11-22T02:31:04;6.72;;;3.90;;
68940;SDS011;55982;51.476;7.552;2022-11-22T02:33:30;9.52;;;4.07;;
68940;SDS011;55982;51.476;7.552;2022-11-22T02:35:56;12.40;;;4.05;;
68940;SDS011;55982;51.476;7.552;2022-11-22T02:38:23;8.13;;;4.20;;
68940;SDS011;55982;51.476;7.552;2022-11-22T02:43:16;11.95;;;4.47;;
68940;SDS011;55982;51.476;7.552;2022-11-22T02:45:46;10.50;;;4.97;;
68940;SDS011;55982;51.476;7.552;2022-11-22T02:48:12;12.90;;;4.97;;
68940;SDS011;55982;51.476;7.552;2022-11-22T02:50:39;8.38;;;4.43;;
68940;SDS011;55982;51.476;7.552;2022-11-22T02:53:05;10.30;;;4.55;;
68940;SDS011;55982;51.476;7.552;2022-11-22T02:55:32;8.38;;;3.85;;
68940;SDS011;55982;51.476;7.552;2022-11-22T02:57:57;7.03;;;4.10;;
68940;SDS011;55982;51.476;7.552;2022-11-22T03:00:23;10.43;;;4.60;;
68940;SDS011;55982;51.476;7.552;2022-11-22T03:02:48;10.85;;;4.30;;
68940;SDS011;55982;51.476;7.552;2022-11-22T03:05:14;10.27;;;4.75;;
68940;SDS011;55982;51.476;7.552;2022-11-22T03:07:39;10.30;;;4.80;;
68940;SDS011;55982;51.476;7.552;2022-11-22T03:10:05;9.57;;;4.65;;
68940;SDS011;55982;51.476;7.552;2022-11-22T03:12:30;8.13;;;4.28;;
68940;SDS011;55982;51.476;7.552;2022-11-22T03:14:56;8.43;;;4.05;;
68940;SDS011;55982;51.476;7.552;2022-11-22T03:17:21;10.40;;;4.50;;
68940;SDS011;55982;51.476;7.552;2022-11-22T03:19:46;10.00;;;4.72;;
68940;SDS011;55982;51.476;7.552;2022-11-22T03:22:12;7.35;;;4.13;;
68940;SDS011;55982;51.476;7.552;2022-11-22T03:24:37;13.75;;;5.53;;
68940;SDS011;55982;51.476;7.552;2022-11-22T03:27:02;12.93;;;4.72;;
68940;SDS011;55982;51.476;7.552;2022-11-22T03:29:28;10.40;;;4.43;;
68940;SDS011;55982;51.476;7.552;2022-11-22T03:31:53;8.65;;;4.38;;
68940;SDS011;55982;51.476;7.552;2022-11-22T03:34:18;14.93;;;5.43;;
68940;SDS011;55982;51.476;7.552;2022-11-22T03:36:44;14.90;;;5.18;;
68940;SDS011;55982;51.476;7.552;2022-11-22T03:39:09;20.75;;;5.50;;
68940;SDS011;55982;51.476;7.552;2022-11-22T03:41:35;12.27;;;4.60;;
68940;SDS011;55982;51.476;7.552;2022-11-22T03:44:00;14.60;;;5.13;;
68940;SDS011;55982;51.476;7.552;2022-11-22T03:46:25;12.77;;;5.15;;
68940;SDS011;55982;51.476;7.552;2022-11-22T03:48:51;8.82;;;4.40;;
68940;SDS011;55982;51.476;7.552;2022-11-22T03:51:16;13.50;;;4.95;;
68940;SDS011;55982;51.476;7.552;2022-11-22T03:53:42;12.35;;;4.40;;
68940;SDS011;55982;51.476;7.552;2022-11-22T03:56:07;17.25;;;4.78;;
68940;SDS011;55982;51.476;7.552;2022-11-22T03:58:32;22.35;;;4.95;;
68940;SDS011;55982;51.476;7.552;2022-11-22T04:00:58;23.25;;;4.80;;
68940;SDS011;55982;51.476;7.552;2022-11-22T04:03:24;12.57;;;4.53;;
68940;SDS011;55982;51.476;7.552;2022-11-22T04:05:49;12.82;;;5.72;;
68940;SDS011;55982;51.476;7.552;2022-11-22T04:08:15;20.73;;;5.88;;
68940;SDS011;55982;51.476;7.552;2022-11-22T04:10:40;18.85;;;5.10;;
68940;SDS011;55982;51.476;7.552;2022-11-22T04:13:05;20.35;;;5.20;;
68940;SDS011;55982;51.476;7.552;2022-11-22T04:15:31;14.43;;;5.20;;
68940;SDS011;55982;51.476;7.552;2022-11-22T04:17:56;18.63;;;5.40;;
68940;SDS011;55982;51.476;7.552;2022-11-22T04:20:22;14.02;;;5.20;;
68940;SDS011;55982;51.476;7.552;2022-11-22T04:23:13;15.05;;;5.80;;
68940;SDS011;55982;51.476;7.552;2022-11-22T04:25:43;21.52;;;5.80;;
68940;SDS011;55982;51.476;7.552;2022-11-22T04:28:17;18.17;;;5.40;;
68940;SDS011;55982;51.476;7.552;2022-11-22T04:30:44;21.52;;;6.07;;
68940;SDS011;55982;51.476;7.552;2022-11-22T04:33:28;20.50;;;5.13;;
68940;SDS011;55982;51.476;7.552;2022-11-22T04:35:54;14.65;;;4.53;;
68940;SDS011;55982;51.476;7.552;2022-11-22T04:38:20;17.17;;;4.70;;
68940;SDS011;55982;51.476;7.552;2022-11-22T04:40:46;22.15;;;5.05;;
68940;SDS011;55982;51.476;7.552;2022-11-22T04:43:15;15.15;;;5.07;;
68940;SDS011;55982;51.476;7.552;2022-11-22T04:46:04;16.52;;;5.15;;
68940;SDS011;55982;51.476;7.552;2022-11-22T04:48:30;24.30;;;4.43;;
68940;SDS011;55982;51.476;7.552;2022-11-22T04:50:55;20.45;;;4.70;;
68940;SDS011;55982;51.476;7.552;2022-11-22T04:53:39;10.23;;;4.13;;
68940;SDS011;55982;51.476;7.552;2022-11-22T04:56:04;14.88;;;4.15;;
68940;SDS011;55982;51.476;7.552;2022-11-22T04:58:30;14.25;;;3.67;;
68940;SDS011;55982;51.476;7.552;2022-11-22T05:00:55;20.23;;;4.05;;
68940;SDS011;55982;51.476;7.552;2022-11-22T05:03:20;14.63;;;3.53;;
68940;SDS011;55982;51.476;7.552;2022-11-22T05:05:46;12.40;;;3.63;;
68940;SDS011;55982;51.476;7.552;2022-11-22T05:08:11;15.35;;;3.60;;
68940;SDS011;55982;51.476;7.552;2022-11-22T05:10:37;16.75;;;3.40;;
68940;SDS011;55982;51.476;7.552;2022-11-22T05:13:28;16.00;;;2.90;;
68940;SDS011;55982;51.476;7.552;2022-11-22T05:16:01;12.95;;;2.58;;
68940;SDS011;55982;51.476;7.552;2022-11-22T05:18:28;10.98;;;3.17;;
68940;SDS011;55982;51.476;7.552;2022-11-22T05:20:54;10.95;;;3.42;;
68940;SDS011;55982;51.476;7.552;2022-11-22T05:23:20;15.20;;;3.60;;
68940;SDS011;55982;51.476;7.552;2022-11-22T05:26:05;14.75;;;3.58;;
68940;SDS011;55982;51.476;7.552;2022-11-22T05:28:32;18.30;;;3.80;;
68940;SDS011;55982;51.476;7.552;2022-11-22T05:31:04;12.70;;;3.45;;
68940;SDS011;55982;51.476;7.552;2022-11-22T05:33:38;17.10;;;3.33;;
68940;SDS011;55982;51.476;7.552;2022-11-22T05:36:05;18.27;;;3.70;;
68940;SDS011;55982;51.476;7.552;2022-11-22T05:38:31;12.55;;;3.55;;
68940;SDS011;55982;51.476;7.552;2022-11-22T05:40:56;15.30;;;3.42;;
68940;SDS011;55982;51.476;7.552;2022-11-22T05:43:22;15.85;;;4.68;;
68940;SDS011;55982;51.476;7.552;2022-11-22T05:45:47;11.57;;;4.55;;
68940;SDS011;55982;51.476;7.552;2022-11-22T05:48:13;14.88;;;3.30;;
68940;SDS011;55982;51.476;7.552;2022-11-22T05:50:38;19.85;;;3.75;;
68940;SDS011;55982;51.476;7.552;2022-11-22T05:53:03;16.35;;;3.42;;
68940;SDS011;55982;51.476;7.552;2022-11-22T05:55:29;10.25;;;3.28;;
68940;SDS011;55982;51.476;7.552;2022-11-22T05:57:54;15.10;;;3.00;;
68940;SDS011;55982;51.476;7.552;2022-11-22T06:00:23;18.23;;;3.42;;
68940;SDS011;55982;51.476;7.552;2022-11-22T06:02:48;17.77;;;3.13;;
68940;SDS011;55982;51.476;7.552;2022-11-22T06:05:13;12.98;;;3.00;;
68940;SDS011;55982;51.476;7.552;2022-11-22T06:07:39;15.20;;;3.33;;
68940;SDS011;55982;51.476;7.552;2022-11-22T06:10:04;17.73;;;3.10;;
68940;SDS011;55982;51.476;7.552;2022-11-22T06:12:30;22.05;;;2.85;;
68940;SDS011;55982;51.476;7.552;2022-11-22T06:14:55;9.18;;;3.08;;
68940;SDS011;55982;51.476;7.552;2022-11-22T06:17:20;11.85;;;2.97;;
68940;SDS011;55982;51.476;7.552;2022-11-22T06:19:46;12.95;;;2.70;;
68940;SDS011;55982;51.476;7.552;2022-11-22T06:22:11;15.73;;;3.00;;
68940;SDS011;55982;51.476;7.552;2022-11-22T06:24:36;12.30;;;2.63;;
68940;SDS011;55982;51.476;7.552;2022-11-22T06:27:02;12.10;;;3.00;;
68940;SDS011;55982;51.476;7.552;2022-11-22T06:29:28;17.58;;;3.58;;
68940;SDS011;55982;51.476;7.552;2022-11-22T06:31:53;17.83;;;4.07;;
68940;SDS011;55982;51.476;7.552;2022-11-22T06:34:18;17.58;;;3.13;;
68940;SDS011;55982;51.476;7.552;2022-11-22T06:36:44;15.25;;;3.58;;
68940;SDS011;55982;51.476;7.552;2022-11-22T06:39:10;19.95;;;3.78;;
68940;SDS011;55982;51.476;7.552;2022-11-22T06:41:36;19.95;;;3.33;;
68940;SDS011;55982;51.476;7.552;2022-11-22T06:44:05;11.40;;;3.08;;
68940;SDS011;55982;51.476;7.552;2022-11-22T06:46:32;16.05;;;3.17;;
68940;SDS011;55982;51.476;7.552;2022-11-22T06:48:58;22.63;;;3.47;;
68940;SDS011;55982;51.476;7.552;2022-11-22T06:51:27;19.45;;;2.92;;
68940;SDS011;55982;51.476;7.552;2022-11-22T06:53:54;19.60;;;2.97;;
68940;SDS011;55982;51.476;7.552;2022-11-22T06:56:30;15.93;;;3.53;;
68940;SDS011;55982;51.476;7.552;2022-11-22T06:59:00;16.27;;;2.47;;
68940;SDS011;55982;51.476;7.552;2022-11-22T07:01:27;12.02;;;3.33;;
68940;SDS011;55982;51.476;7.552;2022-11-22T07:03:54;15.68;;;3.00;;
68940;SDS011;55982;51.476;7.552;2022-11-22T07:06:22;11.13;;;2.95;;
68940;SDS011;55982;51.476;7.552;2022-11-22T07:08:49;16.15;;;3.75;;
68940;SDS011;55982;51.476;7.552;2022-11-22T07:11:16;12.60;;;2.95;;
68940;SDS011;55982;51.476;7.552;2022-11-22T07:13:43;15.35;;;3.10;;
68940;SDS011;55982;51.476;7.552;2022-11-22T07:16:10;16.38;;;3.45;;
68940;SDS011;55982;51.476;7.552;2022-11-22T07:18:37;16.63;;;3.42;;
68940;SDS011;55982;51.476;7.552;2022-11-22T07:21:06;13.05;;;3.00;;
68940;SDS011;55982;51.476;7.552;2022-11-22T07:23:33;17.88;;;3.88;;
68940;SDS011;55982;51.476;7.552;2022-11-22T07:25:59;13.48;;;3.10;;
68940;SDS011;55982;51.476;7.552;2022-11-22T07:28:24;19.25;;;3.50;;
68940;SDS011;55982;51.476;7.552;2022-11-22T07:30:50;19.65;;;3.28;;
68940;SDS011;55982;51.476;7.552;2022-11-22T07:33:16;19.77;;;3.78;;
68940;SDS011;55982;51.476;7.552;2022-11-22T07:35:41;16.95;;;3.30;;
68940;SDS011;55982;51.476;7.552;2022-11-22T07:38:07;11.00;;;2.75;;
68940;SDS011;55982;51.476;7.552;2022-11-22T07:40:33;23.77;;;3.47;;
68940;SDS011;55982;51.476;7.552;2022-11-22T07:42:58;17.23;;;2.95;;
68940;SDS011;55982;51.476;7.552;2022-11-22T07:45:23;15.00;;;3.10;;
68940;SDS011;55982;51.476;7.552;2022-11-22T07:47:49;13.82;;;2.95;;
68940;SDS011;55982;51.476;7.552;2022-11-22T07:50:14;15.93;;;3.03;;
68940;SDS011;55982;51.476;7.552;2022-11-22T07:52:40;13.88;;;2.42;;
68940;SDS011;55982;51.476;7.552;2022-11-22T07:55:05;11.10;;;3.08;;
68940;SDS011;55982;51.476;7.552;2022-11-22T07:57:31;14.85;;;3.55;;
68940;SDS011;55982;51.476;7.552;2022-11-22T07:59:57;14.60;;;3.25;;
68940;SDS011;55982;51.476;7.552;2022-11-22T08:02:23;16.13;;;3.25;;
68940;SDS011;55982;51.476;7.552;2022-11-22T08:04:48;13.90;;;3.05;;
68940;SDS011;55982;51.476;7.552;2022-11-22T08:07:13;16.85;;;2.78;;
68940;SDS011;55982;51.476;7.552;2022-11-22T08:09:39;19.55;;;3.45;;
68940;SDS011;55982;51.476;7.552;2022-11-22T08:12:04;22.58;;;4.15;;
68940;SDS011;55982;51.476;7.552;2022-11-22T08:14:30;20.50;;;3.20;;
68940;SDS011;55982;51.476;7.552;2022-11-22T08:16:55;15.32;;;2.85;;
68940;SDS011;55982;51.476;7.552;2022-11-22T08:19:20;15.77;;;3.03;;
68940;SDS011;55982;51.476;7.552;2022-11-22T08:21:46;12.95;;;2.25;;
68940;SDS011;55982;51.476;7.552;2022-11-22T08:24:13;13.38;;;1.90;;
68940;SDS011;55982;51.476;7.552;2022-11-22T08:26:39;11.48;;;2.47;;
68940;SDS011;55982;51.476;7.552;2022-11-22T08:29:06;12.45;;;2.75;;
68940;SDS011;55982;51.476;7.552;2022-11-22T08:31:32;13.50;;;2.90;;
68940;SDS011;55982;51.476;7.552;2022-11-22T08:33:58;19.08;;;2.80;;
68940;SDS011;55982;51.476;7.552;2022-11-22T08:36:23;10.93;;;2.67;;
68940;SDS011;55982;51.476;7.552;2022-11-22T08:38:48;12.45;;;2.60;;
68940;SDS011;55982;51.476;7.552;2022-11-22T08:41:14;10.60;;;2.40;;
68940;SDS011;55982;51.476;7.552;2022-11-22T08:43:39;11.60;;;2.22;;
68940;SDS011;55982;51.476;7.552;2022-11-22T08:46:04;11.18;;;2.10;;
68940;SDS011;55982;51.476;7.552;2022-11-22T08:48:31;9.65;;;2.78;;
68940;SDS011;55982;51.476;7.552;2022-11-22T08:50:59;9.75;;;1.73;;
68940;SDS011;55982;51.476;7.552;2022-11-22T08:53:30;10.02;;;1.83;;
68940;SDS011;55982;51.476;7.552;2022-11-22T08:55:57;16.25;;;2.28;;
68940;SDS011;55982;51.476;7.552;2022-11-22T08:58:24;9.07;;;1.65;;
68940;SDS011;55982;51.476;7.552;2022-11-22T09:00:50;11.20;;;2.15;;
68940;SDS011;55982;51.476;7.552;2022-11-22T09:03:15;8.38;;;1.90;;
68940;SDS011;55982;51.476;7.552;2022-11-22T09:05:40;11.30;;;1.70;;
68940;SDS011;55982;51.476;7.552;2022-11-22T09:08:06;11.93;;;1.83;;
68940;SDS011;55982;51.476;7.552;2022-11-22T09:10:32;8.65;;;2.28;;
68940;SDS011;55982;51.476;7.552;2022-11-22T09:12:58;9.80;;;1.80;;
68940;SDS011;55982;51.476;7.552;2022-11-22T09:15:23;7.00;;;1.70;;
68940;SDS011;55982;51.476;7.552;2022-11-22T09:17:49;8.38;;;1.63;;
68940;SDS011;55982;51.476;7.552;2022-11-22T09:20:14;8.77;;;2.00;;
68940;SDS011;55982;51.476;7.552;2022-11-22T09:22:40;8.32;;;1.67;;
68940;SDS011;55982;51.476;7.552;2022-11-22T09:25:05;10.65;;;1.60;;
68940;SDS011;55982;51.476;7.552;2022-11-22T09:27:31;8.45;;;1.70;;
68940;SDS011;55982;51.476;7.552;2022-11-22T09:29:57;6.55;;;1.80;;
68940;SDS011;55982;51.476;7.552;2022-11-22T09:32:22;8.05;;;1.75;;
68940;SDS011;55982;51.476;7.552;2022-11-22T09:34:48;8.30;;;1.52;;
68940;SDS011;55982;51.476;7.552;2022-11-22T09:37:13;7.90;;;2.10;;
68940;SDS011;55982;51.476;7.552;2022-11-22T09:39:42;7.22;;;1.60;;
68940;SDS011;55982;51.476;7.552;2022-11-22T10:00:42;7.35;;;1.88;;
68940;SDS011;55982;51.476;7.552;2022-11-22T10:05:49;7.43;;;1.70;;
68940;SDS011;55982;51.476;7.552;2022-11-22T10:10:53;7.00;;;1.52;;
68940;SDS011;55982;51.476;7.552;2022-11-22T10:13:44;10.32;;;1.60;;
68940;SDS011;55982;51.476;7.552;2022-11-22T10:21:41;6.65;;;1.58;;
68940;SDS011;55982;51.476;7.552;2022-11-22T10:24:10;6.97;;;1.70;;
68940;SDS011;55982;51.476;7.552;2022-11-22T10:26:42;8.07;;;2.10;;
68940;SDS011;55982;51.476;7.552;2022-11-22T10:29:14;7.93;;;1.95;;
68940;SDS011;55982;51.476;7.552;2022-11-22T10:37:10;9.10;;;1.48;;
68940;SDS011;55982;51.476;7.552;2022-11-22T10:42:40;8.57;;;1.58;;
68940;SDS011;55982;51.476;7.552;2022-11-22T10:45:18;7.10;;;1.83;;
68940;SDS011;55982;51.476;7.552;2022-11-22T10:50:59;6.00;;;1.65;;
68940;SDS011;55982;51.476;7.552;2022-11-22T10:53:49;7.28;;;1.45;;
68940;SDS011;55982;51.476;7.552;2022-11-22T10:59:23;5.47;;;1.20;;
68940;SDS011;55982;51.476;7.552;2022-11-22T11:05:04;5.90;;;1.52;;
68940;SDS011;55982;51.476;7.552;2022-11-22T11:07:34;11.50;;;1.90;;
68940;SDS011;55982;51.476;7.552;2022-11-22T11:10:03;6.35;;;1.40;;
68940;SDS011;55982;51.476;7.552;2022-11-22T11:12:43;6.78;;;1.25;;
68940;SDS011;55982;51.476;7.552;2022-11-22T11:18:00;8.85;;;1.70;;
68940;SDS011;55982;51.476;7.552;2022-11-22T11:20:30;8.07;;;1.35;;
68940;SDS011;55982;51.476;7.552;2022-11-22T11:22:59;8.63;;;1.70;;
68940;SDS011;55982;51.476;7.552;2022-11-22T11:27:54;8.30;;;1.38;;
68940;SDS011;55982;51.476;7.552;2022-11-22T11:30:23;4.22;;;1.10;;
68940;SDS011;55982;51.476;7.552;2022-11-22T11:32:55;7.70;;;1.05;;
68940;SDS011;55982;51.476;7.552;2022-11-22T11:35:21;5.43;;;1.10;;
68940;SDS011;55982;51.476;7.552;2022-11-22T11:37:50;4.40;;;1.30;;
68940;SDS011;55982;51.476;7.552;2022-11-22T11:40:28;3.55;;;1.13;;
68940;SDS011;55982;51.476;7.552;2022-11-22T11:43:14;5.30;;;1.25;;
68940;SDS011;55982;51.476;7.552;2022-11-22T11:45:39;4.88;;;1.10;;
68940;SDS011;55982;51.476;7.552;2022-11-22T11:48:19;5.32;;;1.10;;
68940;SDS011;55982;51.476;7.552;2022-11-22T11:50:49;6.20;;;1.40;;
68940;SDS011;55982;51.476;7.552;2022-11-22T11:53:14;9.32;;;1.42;;
68940;SDS011;55982;51.476;7.552;2022-11-22T11:55:49;6.40;;;1.13;;
68940;SDS011;55982;51.476;7.552;2022-11-22T11:58:18;3.95;;;0.98;;
68940;SDS011;55982;51.476;7.552;2022-11-22T12:00:46;5.22;;;0.88;;
68940;SDS011;55982;51.476;7.552;2022-11-22T12:03:13;7.20;;;1.13;;
68940;SDS011;55982;51.476;7.552;2022-11-22T12:05:40;7.45;;;1.20;;
68940;SDS011;55982;51.476;7.552;2022-11-22T12:11:03;7.18;;;1.02;;
68940;SDS011;55982;51.476;7.552;2022-11-22T12:13:43;5.63;;;1.13;;
68940;SDS011;55982;51.476;7.552;2022-11-22T12:16:21;3.70;;;0.77;;
68940;SDS011;55982;51.476;7.552;2022-11-22T12:27:03;2.95;;;1.23;;
68940;SDS011;55982;51.476;7.552;2022-11-22T12:29:32;5.20;;;0.90;;
68940;SDS011;55982;51.476;7.552;2022-11-22T12:32:04;5.70;;;1.20;;
68940;SDS011;55982;51.476;7.552;2022-11-22T12:39:36;3.15;;;0.90;;
68940;SDS011;55982;51.476;7.552;2022-11-22T12:42:09;3.90;;;1.10;;
68940;SDS011;55982;51.476;7.552;2022-11-22T12:44:38;6.93;;;1.27;;
68940;SDS011;55982;51.476;7.552;2022-11-22T12:47:12;3.90;;;1.00;;
68940;SDS011;55982;51.476;7.552;2022-11-22T12:49:44;3.92;;;0.90;;
68940;SDS011;55982;51.476;7.552;2022-11-22T12:52:16;7.47;;;1.00;;
68940;SDS011;55982;51.476;7.552;2022-11-22T12:55:04;3.10;;;1.00;;
68940;SDS011;55982;51.476;7.552;2022-11-22T12:57:42;3.80;;;1.05;;
68940;SDS011;55982;51.476;7.552;2022-11-22T13:00:15;5.13;;;1.10;;
68940;SDS011;55982;51.476;7.552;2022-11-22T13:06:07;6.53;;;1.33;;
68940;SDS011;55982;51.476;7.552;2022-11-22T13:10:57;3.30;;;0.85;;
68940;SDS011;55982;51.476;7.552;2022-11-22T13:13:35;5.72;;;0.90;;
68940;SDS011;55982;51.476;7.552;2022-11-22T13:16:05;4.70;;;1.00;;
68940;SDS011;55982;51.476;7.552;2022-11-22T13:18:33;4.00;;;1.13;;
68940;SDS011;55982;51.476;7.552;2022-11-22T13:29:25;7.18;;;1.17;;
68940;SDS011;55982;51.476;7.552;2022-11-22T13:31:59;4.03;;;0.90;;
68940;SDS011;55982;51.476;7.552;2022-11-22T13:34:26;5.72;;;0.95;;
68940;SDS011;55982;51.476;7.552;2022-11-22T13:36:52;4.13;;;1.27;;
68940;SDS011;55982;51.476;7.552;2022-11-22T13:39:19;4.90;;;0.90;;
68940;SDS011;55982;51.476;7.552;2022-11-22T13:41:50;6.30;;;1.10;;
68940;SDS011;55982;51.476;7.552;2022-11-22T13:49:27;3.28;;;1.05;;
68940;SDS011;55982;51.476;7.552;2022-11-22T13:51:53;4.32;;;1.15;;
68940;SDS011;55982;51.476;7.552;2022-11-22T13:57:05;4.95;;;0.90;;
68940;SDS011;55982;51.476;7.552;2022-11-22T14:07:55;2.33;;;1.20;;
68940;SDS011;55982;51.476;7.552;2022-11-22T14:23:57;2.45;;;1.20;;
68940;SDS011;55982;51.476;7.552;2022-11-22T14:26:32;8.05;;;1.38;;
68940;SDS011;55982;51.476;7.552;2022-11-22T14:29:15;6.20;;;1.83;;
68940;SDS011;55982;51.476;7.552;2022-11-22T14:32:02;5.75;;;1.73;;
68940;SDS011;55982;51.476;7.552;2022-11-22T14:35:07;4.43;;;1.38;;
68940;SDS011;55982;51.476;7.552;2022-11-22T14:45:00;6.43;;;1.60;;
68940;SDS011;55982;51.476;7.552;2022-11-22T14:53:14;6.10;;;2.58;;
68940;SDS011;55982;51.476;7.552;2022-11-22T14:55:46;4.05;;;1.30;;
68940;SDS011;55982;51.476;7.552;2022-11-22T14:58:14;5.25;;;1.90;;
68940;SDS011;55982;51.476;7.552;2022-11-22T15:00:55;4.68;;;1.30;;
68940;SDS011;55982;51.476;7.552;2022-11-22T15:06:12;6.07;;;1.20;;
68940;SDS011;55982;51.476;7.552;2022-11-22T15:16:48;2.53;;;1.23;;
68940;SDS011;55982;51.476;7.552;2022-11-22T15:19:36;2.03;;;1.10;;
68940;SDS011;55982;51.476;7.552;2022-11-22T15:24:48;3.40;;;1.40;;
68940;SDS011;55982;51.476;7.552;2022-11-22T15:29:44;4.53;;;1.50;;
68940;SDS011;55982;51.476;7.552;2022-11-22T15:32:12;2.17;;;1.27;;
68940;SDS011;55982;51.476;7.552;2022-11-22T15:34:41;3.95;;;1.48;;
68940;SDS011;55982;51.476;7.552;2022-11-22T15:37:17;3.15;;;1.23;;
68940;SDS011;55982;51.476;7.552;2022-11-22T15:39:51;2.97;;;1.40;;
68940;SDS011;55982;51.476;7.552;2022-11-22T15:42:17;4.80;;;1.63;;
68940;SDS011;55982;51.476;7.552;2022-11-22T15:44:44;4.25;;;1.63;;
68940;SDS011;55982;51.476;7.552;2022-11-22T15:47:17;4.40;;;1.67;;
68940;SDS011;55982;51.476;7.552;2022-11-22T15:49:44;5.78;;;1.75;;
68940;SDS011;55982;51.476;7.552;2022-11-22T15:52:27;3.97;;;1.50;;
68940;SDS011;55982;51.476;7.552;2022-11-22T15:54:54;4.60;;;1.50;;
68940;SDS011;55982;51.476;7.552;2022-11-22T15:57:25;8.32;;;1.60;;
68940;SDS011;55982;51.476;7.552;2022-11-22T15:59:54;5.30;;;1.60;;
68940;SDS011;55982;51.476;7.552;2022-11-22T16:02:22;7.50;;;2.13;;
68940;SDS011;55982;51.476;7.552;2022-11-22T16:09:59;5.85;;;1.95;;
68940;SDS011;55982;51.476;7.552;2022-11-22T16:12:29;4.65;;;2.03;;
68940;SDS011;55982;51.476;7.552;2022-11-22T16:17:50;4.75;;;1.98;;
68940;SDS011;55982;51.476;7.552;2022-11-22T16:23:32;5.10;;;3.00;;
68940;SDS011;55982;51.476;7.552;2022-11-22T16:25:35;3.78;;;2.50;;
68940;SDS011;55982;51.476;7.552;2022-11-22T16:28:45;5.93;;;2.08;;
68940;SDS011;55982;51.476;7.552;2022-11-22T16:30:53;7.15;;;2.40;;
68940;SDS011;55982;51.476;7.552;2022-11-22T16:33:30;4.50;;;2.03;;
68940;SDS011;55982;51.476;7.552;2022-11-22T16:35:57;4.97;;;1.83;;
68940;SDS011;55982;51.476;7.552;2022-11-22T16:38:26;3.42;;;1.90;;
68940;SDS011;55982;51.476;7.552;2022-11-22T16:40:52;4.18;;;1.77;;
68940;SDS011;55982;51.476;7.552;2022-11-22T16:43:21;2.97;;;1.60;;
68940;SDS011;55982;51.476;7.552;2022-11-22T16:45:48;5.43;;;1.65;;
68940;SDS011;55982;51.476;7.552;2022-11-22T16:48:18;4.93;;;1.70;;
68940;SDS011;55982;51.476;7.552;2022-11-22T16:50:44;2.97;;;1.67;;
68940;SDS011;55982;51.476;7.552;2022-11-22T16:53:14;7.80;;;2.55;;
68940;SDS011;55982;51.476;7.552;2022-11-22T16:55:40;5.13;;;1.92;;
68940;SDS011;55982;51.476;7.552;2022-11-22T16:58:11;6.13;;;1.77;;
68940;SDS011;55982;51.476;7.552;2022-11-22T17:00:42;7.20;;;1.70;;
68940;SDS011;55982;51.476;7.552;2022-11-22T17:03:10;2.88;;;1.83;;
68940;SDS011;55982;51.476;7.552;2022-11-22T17:05:38;4.60;;;2.28;;
68940;SDS011;55982;51.476;7.552;2022-11-22T17:08:08;5.20;;;2.00;;
68940;SDS011;55982;51.476;7.552;2022-11-22T17:10:36;2.67;;;1.65;;
68940;SDS011;55982;51.476;7.552;2022-11-22T17:13:03;3.75;;;1.83;;
68940;SDS011;55982;51.476;7.552;2022-11-22T17:15:29;3.53;;;1.95;;
68940;SDS011;55982;51.476;7.552;2022-11-22T17:17:55;3.15;;;1.85;;
68940;SDS011;55982;51.476;7.552;2022-11-22T17:20:21;2.92;;;1.92;;
68940;SDS011;55982;51.476;7.552;2022-11-22T17:22:46;2.33;;;1.60;;
68940;SDS011;55982;51.476;7.552;2022-11-22T17:25:12;2.38;;;1.63;;
68940;SDS011;55982;51.476;7.552;2022-11-22T17:27:37;4.70;;;1.88;;